createdAt,value
2019-04-01T00:00:44.407Z,86.80
2019-04-01T00:01:44.379Z,86.91
2019-04-01T00:02:44.407Z,87.01
2019-04-01T00:03:44.351Z,87.12
2019-04-01T00:04:44.369Z,87.32
2019-04-01T00:05:44.345Z,87.22
2019-04-01T00:06:44.306Z,87.16
2019-04-01T00:07:44.314Z,87.26
2019-04-01T00:08:44.320Z,87.47
2019-04-01T00:09:44.316Z,87.68
2019-04-01T00:10:44.265Z,87.47
2019-04-01T00:11:44.269Z,87.57
2019-04-01T00:12:44.281Z,87.26
2019-04-01T00:13:44.241Z,87.37
2019-04-01T00:14:44.266Z,87.26
2019-04-01T00:15:44.231Z,87.47
2019-04-01T00:16:44.213Z,87.26
2019-04-01T00:17:44.198Z,87.26
2019-04-01T00:18:44.194Z,87.37
2019-04-01T00:19:44.196Z,87.26
2019-04-01T00:20:44.181Z,87.26
2019-04-01T00:21:44.661Z,87.16
2019-04-01T00:22:44.171Z,87.47
2019-04-01T00:23:44.151Z,87.37
2019-04-01T00:24:44.145Z,87.26
2019-04-01T00:25:44.112Z,87.47
2019-04-01T00:26:44.102Z,87.47
2019-04-01T00:27:44.095Z,87.37
2019-04-01T00:28:44.070Z,87.47
2019-04-01T00:29:44.127Z,87.37
2019-04-01T00:30:44.103Z,87.16
2019-04-01T00:31:44.058Z,87.16
2019-04-01T00:32:44.053Z,87.26
2019-04-01T00:33:44.033Z,87.37
2019-04-01T00:34:44.031Z,87.26
2019-04-01T00:35:44.042Z,87.47
2019-04-01T00:36:43.998Z,87.57
2019-04-01T00:37:44.008Z,87.57
2019-04-01T00:38:43.970Z,87.78
2019-04-01T00:39:43.970Z,87.78
2019-04-01T00:40:43.980Z,87.88
2019-04-01T00:41:43.954Z,87.78
2019-04-01T00:42:43.932Z,87.47
2019-04-01T00:43:43.922Z,87.68
2019-04-01T00:44:43.904Z,87.57
2019-04-01T00:45:43.927Z,87.47
2019-04-01T00:46:43.889Z,87.57
2019-04-01T00:47:43.896Z,87.68
2019-04-01T00:48:43.854Z,87.78
2019-04-01T00:49:43.867Z,87.78
2019-04-01T00:50:43.860Z,87.78
2019-04-01T00:51:43.823Z,87.88
2019-04-01T00:52:43.838Z,87.78
2019-04-01T00:53:43.837Z,87.88
2019-04-01T00:54:43.779Z,87.78
2019-04-01T00:55:43.807Z,87.57
2019-04-01T00:56:43.774Z,87.68
2019-04-01T00:57:43.754Z,87.88
2019-04-01T00:58:43.761Z,87.88
2019-04-01T00:59:43.733Z,87.78
2019-04-01T01:00:43.739Z,87.88
2019-04-01T01:01:43.708Z,87.78
2019-04-01T01:02:43.700Z,87.57
2019-04-01T01:03:43.708Z,87.57
2019-04-01T01:04:43.675Z,87.57
2019-04-01T01:05:43.708Z,87.71
2019-04-01T01:06:43.683Z,87.92
2019-04-01T01:07:43.653Z,87.71
2019-04-01T01:08:43.663Z,87.92
2019-04-01T01:09:43.641Z,88.13
2019-04-01T01:10:43.697Z,88.44
2019-04-01T01:11:43.620Z,88.34
2019-04-01T01:12:43.599Z,88.34
2019-04-01T01:13:43.597Z,88.44
2019-04-01T01:14:43.569Z,88.44
2019-04-01T01:15:43.573Z,88.34
2019-04-01T01:16:43.543Z,88.75
2019-04-01T01:17:43.550Z,88.90
2019-04-01T01:18:43.530Z,89.27
2019-04-01T01:19:43.521Z,89.31
2019-04-01T01:20:43.530Z,89.37
2019-04-01T01:21:43.500Z,89.17
2019-04-01T01:22:43.503Z,89.21
2019-04-01T01:23:43.482Z,89.21
2019-04-01T01:24:43.471Z,89.31
2019-04-01T01:25:43.554Z,89.21
2019-04-01T01:26:43.436Z,89.42
2019-04-01T01:27:43.444Z,89.31
2019-04-01T01:28:43.457Z,89.31
2019-04-01T01:29:43.405Z,89.31
2019-04-01T01:30:43.397Z,89.31
2019-04-01T01:31:43.430Z,89.42
2019-04-01T01:32:43.366Z,89.31
2019-04-01T01:33:43.358Z,89.31
2019-04-01T01:34:43.351Z,89.52
2019-04-01T01:35:43.369Z,89.52
2019-04-01T01:36:43.347Z,89.62
2019-04-01T01:37:43.337Z,89.52
2019-04-01T01:38:43.301Z,89.42
2019-04-01T01:39:43.292Z,89.62
2019-04-01T01:40:43.296Z,89.42
2019-04-01T01:41:43.356Z,89.42
2019-04-01T01:42:43.286Z,89.21
2019-04-01T01:43:43.259Z,89.11
2019-04-01T01:44:43.235Z,89.11
2019-04-01T01:45:43.329Z,89.11
2019-04-01T01:46:43.240Z,89.25
2019-04-01T01:47:43.220Z,89.46
2019-04-01T01:48:43.195Z,89.56
2019-04-01T01:49:43.182Z,89.56
2019-04-01T01:50:43.211Z,89.67
2019-04-01T01:51:43.190Z,89.46
2019-04-01T01:52:43.156Z,89.36
2019-04-01T01:53:43.147Z,89.46
2019-04-01T01:54:43.138Z,89.56
2019-04-01T01:55:43.157Z,89.67
2019-04-01T01:56:43.162Z,89.46
2019-04-01T01:57:43.106Z,89.36
2019-04-01T01:58:43.092Z,89.25
2019-04-01T01:59:43.106Z,89.25
2019-04-01T02:00:43.056Z,89.36
2019-04-01T02:01:43.069Z,89.56
2019-04-01T02:02:43.052Z,89.56
2019-04-01T02:03:43.038Z,89.46
2019-04-01T02:04:43.046Z,89.77
2019-04-01T02:05:43.011Z,90.19
2019-04-01T02:06:43.022Z,90.08
2019-04-01T02:07:42.978Z,90.08
2019-04-01T02:08:42.966Z,89.87
2019-04-01T02:09:42.964Z,89.77
2019-04-01T02:10:42.963Z,89.56
2019-04-01T02:11:42.990Z,89.67
2019-04-01T02:12:42.927Z,89.67
2019-04-01T02:13:42.916Z,89.67
2019-04-01T02:14:42.916Z,89.56
2019-04-01T02:15:42.911Z,89.46
2019-04-01T02:16:42.941Z,89.36
2019-04-01T02:17:42.888Z,89.25
2019-04-01T02:18:42.863Z,89.04
2019-04-01T02:19:42.857Z,89.56
2019-04-01T02:20:42.844Z,89.67
2019-04-01T02:21:42.845Z,89.60
2019-04-01T02:22:42.849Z,89.70
2019-04-01T02:23:42.804Z,89.92
2019-04-01T02:24:42.814Z,89.92
2019-04-01T02:25:42.793Z,90.26
2019-04-01T02:26:42.769Z,90.37
2019-04-01T02:27:42.783Z,90.58
2019-04-01T02:28:42.767Z,90.47
2019-04-01T02:29:42.753Z,90.37
2019-04-01T02:30:42.745Z,90.47
2019-04-01T02:31:42.725Z,90.58
2019-04-01T02:32:42.738Z,90.69
2019-04-01T02:33:42.688Z,90.93
2019-04-01T02:34:42.690Z,91.25
2019-04-01T02:35:42.673Z,91.35
2019-04-01T02:36:42.691Z,91.46
2019-04-01T02:37:42.687Z,91.46
2019-04-01T02:38:42.778Z,91.35
2019-04-01T02:39:42.641Z,91.46
2019-04-01T02:40:42.633Z,91.66
2019-04-01T02:41:42.620Z,91.87
2019-04-01T02:42:42.627Z,91.87
2019-04-01T02:43:42.605Z,91.77
2019-04-01T02:44:42.581Z,91.77
2019-04-01T02:45:42.585Z,91.46
2019-04-01T02:46:42.558Z,91.35
2019-04-01T02:47:42.579Z,91.35
2019-04-01T02:48:42.542Z,91.50
2019-04-01T02:49:42.525Z,91.71
2019-04-01T02:50:42.519Z,91.81
2019-04-01T02:51:42.520Z,92.12
2019-04-01T02:52:42.515Z,92.33
2019-04-01T02:53:42.477Z,92.43
2019-04-01T02:54:42.467Z,92.29
2019-04-01T02:55:42.461Z,92.08
2019-04-01T02:56:42.446Z,91.97
2019-04-01T02:57:42.465Z,91.87
2019-04-01T02:58:42.440Z,91.91
2019-04-01T02:59:42.428Z,91.97
2019-04-01T03:00:42.395Z,91.97
2019-04-01T03:01:42.418Z,92.08
2019-04-01T03:02:42.407Z,92.08
2019-04-01T03:03:42.358Z,92.08
2019-04-01T03:04:42.364Z,92.08
2019-04-01T03:05:42.341Z,92.02
2019-04-01T03:06:42.334Z,91.97
2019-04-01T03:07:42.374Z,91.91
2019-04-01T03:08:42.327Z,92.12
2019-04-01T03:09:42.312Z,92.08
2019-04-01T03:10:42.305Z,91.91
2019-04-01T03:11:42.283Z,92.02
2019-04-01T03:12:42.326Z,92.02
2019-04-01T03:13:42.267Z,92.02
2019-04-01T03:14:42.248Z,92.12
2019-04-01T03:15:42.252Z,92.02
2019-04-01T03:16:42.218Z,91.91
2019-04-01T03:17:42.253Z,91.91
2019-04-01T03:18:42.222Z,92.12
2019-04-01T03:19:42.188Z,92.27
2019-04-01T03:20:42.177Z,92.47
2019-04-01T03:21:42.183Z,92.79
2019-04-01T03:22:42.181Z,92.68
2019-04-01T03:23:42.168Z,92.68
2019-04-01T03:24:42.142Z,92.47
2019-04-01T03:25:42.135Z,92.68
2019-04-01T03:26:42.121Z,92.79
2019-04-01T03:27:42.126Z,92.89
2019-04-01T03:28:42.097Z,92.99
2019-04-01T03:29:42.093Z,92.99
2019-04-01T03:30:42.120Z,93.14
2019-04-01T03:31:42.063Z,93.04
2019-04-01T03:32:45.214Z,93.24
2019-04-01T03:33:42.059Z,93.46
2019-04-01T03:34:42.038Z,93.56
2019-04-01T03:35:42.041Z,93.66
2019-04-01T03:36:42.013Z,93.56
2019-04-01T03:37:41.992Z,93.66
2019-04-01T03:38:42.006Z,93.56
2019-04-01T03:39:41.978Z,93.46
2019-04-01T03:40:41.966Z,93.46
2019-04-01T03:41:41.976Z,93.35
2019-04-01T03:42:41.943Z,93.35
2019-04-01T03:43:41.977Z,93.46
2019-04-01T03:44:41.925Z,93.35
2019-04-01T03:45:41.918Z,93.24
2019-04-01T03:46:41.913Z,93.04
2019-04-01T03:47:41.913Z,93.04
2019-04-01T03:48:41.926Z,92.93
2019-04-01T03:49:41.878Z,92.83
2019-04-01T03:50:41.890Z,92.93
2019-04-01T03:51:41.858Z,92.93
2019-04-01T03:52:41.860Z,93.14
2019-04-01T03:53:41.863Z,93.04
2019-04-01T03:54:41.842Z,93.14
2019-04-01T03:55:41.821Z,93.14
2019-04-01T03:56:41.796Z,93.18
2019-04-01T03:57:41.792Z,93.18
2019-04-01T03:58:41.809Z,93.35
2019-04-01T03:59:41.770Z,93.29
2019-04-01T04:00:41.760Z,93.40
2019-04-01T04:01:41.740Z,93.50
2019-04-01T04:02:41.739Z,93.60
2019-04-01T04:03:41.739Z,93.50
2019-04-01T04:04:41.729Z,93.50
2019-04-01T04:05:41.704Z,93.50
2019-04-01T04:06:41.692Z,93.50
2019-04-01T04:07:41.694Z,93.40
2019-04-01T04:08:41.700Z,93.40
2019-04-01T04:09:41.693Z,93.40
2019-04-01T04:10:41.642Z,93.29
2019-04-01T04:11:41.639Z,93.29
2019-04-01T04:12:41.605Z,93.29
2019-04-01T04:13:41.649Z,93.40
2019-04-01T04:14:41.599Z,93.50
2019-04-01T04:15:41.596Z,93.50
2019-04-01T04:16:41.575Z,93.60
2019-04-01T04:17:41.584Z,93.40
2019-04-01T04:18:41.606Z,93.40
2019-04-01T04:19:41.545Z,93.40
2019-04-01T04:20:41.547Z,93.60
2019-04-01T04:21:41.529Z,93.65
2019-04-01T04:22:41.542Z,93.75
2019-04-01T04:23:41.559Z,93.85
2019-04-01T04:24:41.529Z,93.85
2019-04-01T04:25:41.497Z,93.75
2019-04-01T04:26:41.486Z,93.65
2019-04-01T04:27:41.466Z,93.65
2019-04-01T04:28:41.484Z,93.65
2019-04-01T04:29:41.449Z,93.65
2019-04-01T04:30:41.447Z,93.96
2019-04-01T04:31:41.418Z,94.06
2019-04-01T04:32:41.425Z,94.21
2019-04-01T04:33:41.427Z,94.52
2019-04-01T04:34:41.463Z,94.63
2019-04-01T04:35:41.397Z,94.63
2019-04-01T04:36:41.382Z,94.63
2019-04-01T04:37:41.360Z,94.63
2019-04-01T04:38:41.372Z,94.73
2019-04-01T04:39:41.338Z,94.84
2019-04-01T04:40:41.451Z,94.94
2019-04-01T04:41:41.310Z,95.15
2019-04-01T04:42:41.320Z,95.15
2019-04-01T04:43:41.380Z,95.04
2019-04-01T04:44:41.295Z,94.94
2019-04-01T04:45:41.276Z,94.94
2019-04-01T04:46:41.278Z,94.94
2019-04-01T04:47:41.254Z,94.84
2019-04-01T04:48:41.285Z,94.84
2019-04-01T04:49:41.283Z,94.84
2019-04-01T04:50:41.234Z,94.84
2019-04-01T04:51:41.210Z,94.84
2019-04-01T04:52:41.217Z,94.94
2019-04-01T04:53:41.185Z,94.84
2019-04-01T04:54:41.203Z,94.84
2019-04-01T04:55:41.168Z,94.94
2019-04-01T04:56:41.157Z,94.84
2019-04-01T04:57:41.172Z,94.73
2019-04-01T04:58:41.140Z,94.73
2019-04-01T04:59:41.163Z,94.63
2019-04-01T05:00:41.111Z,94.63
2019-04-01T05:01:41.113Z,94.78
2019-04-01T05:02:41.113Z,94.84
2019-04-01T05:03:41.107Z,94.84
2019-04-01T05:04:41.098Z,94.88
2019-04-01T05:05:41.063Z,94.98
2019-04-01T05:06:41.081Z,94.84
2019-04-01T05:07:41.028Z,94.84
2019-04-01T05:08:41.028Z,94.78
2019-04-01T05:09:41.047Z,94.98
2019-04-01T05:10:41.022Z,94.98
2019-04-01T05:11:41.004Z,94.98
2019-04-01T05:12:40.987Z,94.98
2019-04-01T05:13:40.987Z,94.98
2019-04-01T05:14:40.987Z,94.98
2019-04-01T05:15:41.102Z,95.09
2019-04-01T05:16:41.194Z,95.09
2019-04-01T05:17:41.066Z,94.98
2019-04-01T05:18:41.578Z,94.98
2019-04-01T05:19:41.259Z,95.09
2019-04-01T05:20:40.907Z,95.09
2019-04-01T05:21:40.921Z,95.19
2019-04-01T05:22:40.895Z,95.25
2019-04-01T05:23:40.870Z,95.15
2019-04-01T05:24:40.884Z,95.15
2019-04-01T05:25:40.845Z,94.94
2019-04-01T05:26:40.899Z,94.84
2019-04-01T05:27:40.824Z,94.94
2019-04-01T05:28:40.842Z,94.94
2019-04-01T05:29:41.007Z,94.73
2019-04-01T05:30:40.969Z,94.63
2019-04-01T05:31:40.809Z,94.84
2019-04-01T05:32:40.795Z,94.73
2019-04-01T05:33:54.542Z,94.52
2019-04-01T05:34:41.779Z,94.52
2019-04-01T05:35:40.773Z,94.52
2019-04-01T05:36:40.742Z,94.63
2019-04-01T05:37:40.728Z,94.58
2019-04-01T05:38:40.722Z,94.58
2019-04-01T05:39:40.744Z,94.48
2019-04-01T05:40:40.714Z,94.33
2019-04-01T05:41:40.676Z,93.91
2019-04-01T05:42:40.666Z,93.66
2019-04-01T05:43:40.666Z,92.99
2019-04-01T05:44:40.677Z,91.60
2019-04-01T05:45:40.675Z,90.52
2019-04-01T05:46:40.627Z,89.75
2019-04-01T05:47:40.615Z,88.46
2019-04-01T05:48:40.604Z,87.38
2019-04-01T05:49:40.601Z,86.41
2019-04-01T05:50:40.618Z,85.33
2019-04-01T05:51:40.576Z,84.81
2019-04-01T05:52:40.585Z,84.25
2019-04-01T05:53:40.566Z,83.90
2019-04-01T05:54:40.544Z,83.03
2019-04-01T05:55:40.542Z,81.20
2019-04-01T05:56:40.521Z,79.12
2019-04-01T05:57:40.550Z,76.87
2019-04-01T05:58:40.486Z,74.74
2019-04-01T05:59:40.495Z,72.30
2019-04-01T06:00:40.511Z,70.58
2019-04-01T06:01:40.459Z,69.56
2019-04-01T06:02:40.455Z,66.61
2019-04-01T06:03:40.436Z,65.01
2019-04-01T06:04:40.419Z,63.07
2019-04-01T06:05:40.455Z,61.10
2019-04-01T06:06:40.421Z,59.87
2019-04-01T06:07:40.417Z,59.43
2019-04-01T06:08:40.497Z,58.76
2019-04-01T06:09:40.390Z,57.71
2019-04-01T06:10:40.391Z,56.76
2019-04-01T06:11:40.372Z,55.92
2019-04-01T06:12:40.337Z,55.58
2019-04-01T06:13:40.322Z,54.97
2019-04-01T06:14:40.335Z,54.31
2019-04-01T06:15:40.340Z,53.67
2019-04-01T06:16:40.306Z,52.55
2019-04-01T06:17:40.290Z,51.61
2019-04-01T06:18:40.272Z,51.79
2019-04-01T06:19:40.279Z,51.28
2019-04-01T06:20:40.341Z,51.15
2019-04-01T06:21:40.236Z,50.11
2019-04-01T06:22:40.232Z,49.07
2019-04-01T06:23:40.226Z,49.48
2019-04-01T06:24:40.368Z,49.68
2019-04-01T06:25:40.230Z,48.72
2019-04-01T06:26:40.205Z,49.08
2019-04-01T06:27:40.196Z,48.24
2019-04-01T06:28:40.178Z,47.20
2019-04-01T06:29:40.202Z,46.37
2019-04-01T06:30:40.207Z,46.37
2019-04-01T06:31:40.302Z,46.95
2019-04-01T06:32:40.236Z,45.82
2019-04-01T06:33:40.132Z,44.70
2019-04-01T06:34:52.354Z,45.29
2019-04-01T06:35:41.143Z,45.87
2019-04-01T06:36:40.112Z,44.03
2019-04-01T06:37:40.096Z,43.55
2019-04-01T06:38:40.073Z,45.21
2019-04-01T06:39:40.071Z,45.56
2019-04-01T06:40:40.067Z,49.20
2019-04-01T06:41:40.579Z,49.80
2019-04-01T06:42:40.009Z,51.61
2019-04-01T06:43:40.018Z,51.40
2019-04-01T06:44:40.044Z,51.13
2019-04-01T06:45:39.993Z,50.42
2019-04-01T06:46:39.978Z,51.74
2019-04-01T06:47:39.983Z,51.10
2019-04-01T06:48:39.964Z,50.19
2019-04-01T06:49:39.992Z,50.67
2019-04-01T06:50:39.982Z,49.58
2019-04-01T06:51:39.962Z,50.72
2019-04-01T06:52:39.934Z,49.43
2019-04-01T06:53:39.914Z,46.92
2019-04-01T06:54:39.904Z,46.83
2019-04-01T06:55:39.953Z,45.33
2019-04-01T06:56:39.895Z,46.73
2019-04-01T06:57:39.854Z,45.78
2019-04-01T06:58:39.872Z,46.16
2019-04-01T06:59:39.844Z,43.29
2019-04-01T07:00:39.878Z,42.60
2019-04-01T07:01:39.853Z,43.29
2019-04-01T07:02:39.814Z,44.62
2019-04-01T07:03:39.812Z,44.60
2019-04-01T07:04:39.803Z,43.24
2019-04-01T07:05:39.799Z,43.12
2019-04-01T07:06:39.813Z,43.59
2019-04-01T07:07:39.761Z,43.44
2019-04-01T07:08:39.740Z,42.17
2019-04-01T07:09:39.762Z,43.79
2019-04-01T07:10:39.723Z,42.19
2019-04-01T07:11:39.828Z,42.92
2019-04-01T07:12:39.703Z,43.29
2019-04-01T07:13:40.270Z,42.15
2019-04-01T07:14:39.723Z,42.03
2019-04-01T07:15:39.728Z,41.36
2019-04-01T07:16:40.170Z,40.52
2019-04-01T07:17:39.676Z,39.01
2019-04-01T07:18:39.663Z,40.10
2019-04-01T07:19:39.639Z,40.22
2019-04-01T07:20:39.629Z,38.54
2019-04-01T07:21:39.645Z,41.16
2019-04-01T07:22:39.599Z,39.43
2019-04-01T07:23:39.637Z,40.42
2019-04-01T07:24:39.586Z,38.40
2019-04-01T07:25:39.575Z,38.12
2019-04-01T07:26:39.591Z,39.29
2019-04-01T07:27:39.561Z,39.23
2019-04-01T07:28:39.554Z,38.50
2019-04-01T07:29:39.539Z,38.17
2019-04-01T07:30:41.790Z,38.99
2019-04-01T07:31:39.593Z,37.98
2019-04-01T07:32:39.504Z,37.26
2019-04-01T07:33:39.490Z,37.65
2019-04-01T07:34:39.489Z,37.96
2019-04-01T07:35:39.488Z,37.43
2019-04-01T07:36:39.514Z,39.43
2019-04-01T07:37:39.481Z,38.47
2019-04-01T07:38:39.445Z,38.67
2019-04-01T07:39:39.452Z,37.45
2019-04-01T07:40:39.432Z,37.61
2019-04-01T07:41:39.478Z,37.12
2019-04-01T07:42:39.410Z,36.62
2019-04-01T07:43:39.419Z,36.20
2019-04-01T07:44:39.397Z,36.89
2019-04-01T07:45:39.411Z,36.30
2019-04-01T07:46:39.400Z,36.69
2019-04-01T07:47:39.366Z,36.00
2019-04-01T07:48:39.436Z,38.01
2019-04-01T07:49:39.384Z,36.32
2019-04-01T07:50:39.377Z,36.80
2019-04-01T07:51:39.346Z,37.10
2019-04-01T07:52:39.344Z,36.18
2019-04-01T07:53:39.308Z,35.97
2019-04-01T07:54:39.310Z,35.58
2019-04-01T07:55:39.341Z,35.88
2019-04-01T07:56:39.323Z,35.82
2019-04-01T07:57:39.264Z,36.92
2019-04-01T07:58:39.266Z,37.68
2019-04-01T07:59:39.247Z,40.34
2019-04-01T08:00:39.228Z,38.52
2019-04-01T08:01:39.262Z,39.51
2019-04-01T08:02:39.260Z,38.28
2019-04-01T08:03:41.950Z,39.23
2019-04-01T08:04:39.214Z,39.77
2019-04-01T08:05:39.186Z,39.67
2019-04-01T08:06:39.237Z,39.13
2019-04-01T08:07:39.179Z,38.40
2019-04-01T08:08:39.147Z,38.93
2019-04-01T08:09:39.181Z,38.75
2019-04-01T08:10:39.158Z,38.71
2019-04-01T08:11:39.120Z,38.08
2019-04-01T08:12:39.216Z,38.17
2019-04-01T08:13:39.133Z,38.39
2019-04-01T08:14:39.088Z,38.35
2019-04-01T08:15:39.161Z,37.32
2019-04-01T08:16:39.092Z,36.32
2019-04-01T08:17:39.090Z,35.83
2019-04-01T08:18:39.051Z,36.04
2019-04-01T08:19:39.054Z,36.08
2019-04-01T08:20:39.049Z,37.19
2019-04-01T08:21:39.061Z,37.41
2019-04-01T08:22:39.083Z,37.68
2019-04-01T08:23:39.010Z,36.99
2019-04-01T08:24:39.014Z,36.89
2019-04-01T08:25:39.014Z,37.90
2019-04-01T08:26:39.008Z,36.24
2019-04-01T08:27:39.043Z,37.46
2019-04-01T08:28:39.530Z,40.13
2019-04-01T08:29:38.933Z,39.48
2019-04-01T08:30:38.945Z,38.35
2019-04-01T08:31:38.939Z,38.10
2019-04-01T08:32:38.930Z,36.49
2019-04-01T08:33:38.920Z,36.39
2019-04-01T08:34:38.904Z,38.59
2019-04-01T08:35:38.927Z,39.55
2019-04-01T08:36:38.915Z,37.38
2019-04-01T08:37:40.567Z,36.24
2019-04-01T08:38:38.868Z,35.82
2019-04-01T08:39:38.841Z,34.79
2019-04-01T08:40:38.841Z,35.61
2019-04-01T08:41:38.813Z,35.61
2019-04-01T08:42:38.859Z,37.60
2019-04-01T08:43:38.807Z,37.31
2019-04-01T08:44:38.820Z,37.58
2019-04-01T08:45:38.814Z,36.46
2019-04-01T08:46:38.800Z,36.42
2019-04-01T08:47:38.806Z,36.46
2019-04-01T08:48:38.761Z,37.82
2019-04-01T08:49:38.754Z,38.15
2019-04-01T08:50:38.735Z,39.91
2019-04-01T08:51:38.755Z,39.17
2019-04-01T08:52:38.745Z,38.30
2019-04-01T08:53:38.700Z,36.55
2019-04-01T08:54:38.713Z,36.24
2019-04-01T08:55:38.700Z,37.23
2019-04-01T08:56:38.698Z,35.51
2019-04-01T08:57:38.711Z,36.02
2019-04-01T08:58:38.681Z,37.16
2019-04-01T08:59:38.656Z,36.35
2019-04-01T09:00:38.628Z,37.40
2019-04-01T09:01:38.636Z,40.53
2019-04-01T09:02:38.718Z,35.18
2019-04-01T09:03:38.598Z,37.18
2019-04-01T09:04:38.599Z,36.55
2019-04-01T09:05:38.573Z,36.66
2019-04-01T09:06:38.612Z,36.67
2019-04-01T09:07:38.630Z,36.04
2019-04-01T09:08:38.574Z,35.70
2019-04-01T09:09:38.548Z,36.57
2019-04-01T09:10:38.522Z,37.18
2019-04-01T09:11:38.869Z,36.76
2019-04-01T09:12:38.543Z,37.80
2019-04-01T09:13:38.538Z,37.27
2019-04-01T09:14:38.477Z,36.04
2019-04-01T09:15:38.501Z,37.78
2019-04-01T09:16:38.479Z,36.89
2019-04-01T09:17:40.460Z,38.13
2019-04-01T09:18:38.447Z,37.49
2019-04-01T09:19:38.438Z,37.70
2019-04-01T09:20:39.381Z,37.40
2019-04-01T09:21:38.422Z,38.47
2019-04-01T09:22:38.438Z,35.71
2019-04-01T09:23:38.399Z,35.16
2019-04-01T09:24:38.404Z,35.60
2019-04-01T09:25:38.366Z,35.60
2019-04-01T09:26:38.375Z,35.21
2019-04-01T09:27:38.388Z,35.51
2019-04-01T09:28:38.347Z,36.02
2019-04-01T09:29:38.341Z,35.71
2019-04-01T09:30:38.303Z,35.80
2019-04-01T09:31:38.316Z,35.48
2019-04-01T09:32:38.334Z,36.15
2019-04-01T09:33:38.310Z,36.77
2019-04-01T09:34:38.282Z,36.55
2019-04-01T09:35:40.879Z,36.25
2019-04-01T09:36:38.255Z,37.60
2019-04-01T09:37:38.288Z,38.40
2019-04-01T09:38:38.239Z,38.00
2019-04-01T09:39:38.230Z,37.80
2019-04-01T09:40:38.227Z,37.70
2019-04-01T09:41:38.193Z,37.66
2019-04-01T09:42:38.218Z,36.30
2019-04-01T09:43:38.220Z,36.10
2019-04-01T09:44:38.178Z,35.50
2019-04-01T09:45:38.190Z,36.22
2019-04-01T09:46:38.166Z,36.40
2019-04-01T09:47:38.138Z,36.69
2019-04-01T09:48:38.185Z,34.84
2019-04-01T09:49:38.113Z,34.73
2019-04-01T09:50:38.124Z,34.46
2019-04-01T09:51:48.524Z,35.46
2019-04-01T09:52:39.148Z,34.63
2019-04-01T09:53:38.092Z,33.92
2019-04-01T09:54:38.078Z,33.99
2019-04-01T09:55:38.087Z,34.46
2019-04-01T09:56:38.059Z,35.14
2019-04-01T09:57:38.059Z,35.61
2019-04-01T09:58:38.038Z,34.24
2019-04-01T09:59:38.011Z,34.22
2019-04-01T10:00:38.008Z,34.66
2019-04-01T10:01:38.036Z,34.74
2019-04-01T10:02:38.046Z,35.05
2019-04-01T10:03:38.004Z,34.21
2019-04-01T10:04:37.955Z,33.87
2019-04-01T10:05:37.960Z,33.86
2019-04-01T10:06:37.964Z,32.56
2019-04-01T10:07:38.117Z,32.84
2019-04-01T10:08:42.436Z,32.64
2019-04-01T10:09:38.916Z,32.34
2019-04-01T10:10:37.929Z,33.58
2019-04-01T10:11:37.928Z,33.32
2019-04-01T10:12:37.913Z,34.66
2019-04-01T10:13:37.912Z,35.21
2019-04-01T10:14:37.866Z,36.30
2019-04-01T10:15:37.867Z,35.80
2019-04-01T10:16:37.846Z,36.18
2019-04-01T10:17:37.897Z,34.94
2019-04-01T10:18:37.850Z,35.80
2019-04-01T10:19:37.833Z,37.80
2019-04-01T10:20:37.814Z,38.59
2019-04-01T10:21:37.794Z,38.40
2019-04-01T10:22:37.841Z,37.65
2019-04-01T10:23:37.805Z,37.93
2019-04-01T10:24:37.766Z,37.63
2019-04-01T10:25:37.769Z,37.27
2019-04-01T10:26:37.758Z,37.87
2019-04-01T10:27:37.746Z,36.50
2019-04-01T10:28:37.750Z,35.26
2019-04-01T10:29:37.723Z,34.83
2019-04-01T10:30:37.720Z,34.63
2019-04-01T10:31:37.712Z,35.58
2019-04-01T10:32:37.701Z,35.86
2019-04-01T10:33:37.742Z,35.03
2019-04-01T10:34:37.691Z,34.42
2019-04-01T10:35:37.652Z,34.73
2019-04-01T10:36:37.647Z,34.31
2019-04-01T10:37:37.621Z,34.61
2019-04-01T10:38:37.636Z,34.69
2019-04-01T10:39:37.647Z,34.61
2019-04-01T10:40:37.644Z,34.69
2019-04-01T10:41:37.591Z,34.39
2019-04-01T10:42:37.587Z,35.01
2019-04-01T10:43:37.605Z,35.64
2019-04-01T10:44:37.551Z,36.15
2019-04-01T10:45:38.832Z,35.55
2019-04-01T10:46:40.657Z,35.13
2019-04-01T10:47:37.651Z,34.63
2019-04-01T10:48:37.563Z,35.66
2019-04-01T10:49:37.514Z,36.08
2019-04-01T10:50:37.539Z,36.70
2019-04-01T10:51:37.482Z,36.97
2019-04-01T10:52:37.526Z,35.13
2019-04-01T10:53:37.503Z,35.97
2019-04-01T10:54:37.489Z,35.98
2019-04-01T10:55:37.482Z,36.07
2019-04-01T10:56:37.462Z,35.43
2019-04-01T10:57:37.498Z,35.83
2019-04-01T10:58:37.552Z,35.01
2019-04-01T10:59:37.411Z,35.91
2019-04-01T11:00:37.443Z,35.73
2019-04-01T11:01:37.450Z,35.61
2019-04-01T11:02:37.415Z,35.21
2019-04-01T11:03:37.414Z,35.14
2019-04-01T11:04:37.456Z,35.55
2019-04-01T11:05:37.446Z,37.74
2019-04-01T11:06:37.346Z,37.99
2019-04-01T11:07:37.327Z,36.25
2019-04-01T11:08:37.498Z,35.64
2019-04-01T11:09:38.660Z,37.04
2019-04-01T11:10:37.288Z,35.43
2019-04-01T11:11:37.275Z,35.44
2019-04-01T11:12:37.259Z,35.44
2019-04-01T11:13:37.274Z,35.44
2019-04-01T11:14:37.264Z,35.43
2019-04-01T11:15:37.242Z,35.31
2019-04-01T11:16:37.229Z,35.33
2019-04-01T11:17:37.215Z,35.35
2019-04-01T11:18:37.222Z,35.03
2019-04-01T11:19:37.218Z,35.26
2019-04-01T11:20:37.204Z,35.18
2019-04-01T11:21:37.168Z,35.98
2019-04-01T11:22:37.157Z,36.27
2019-04-01T11:23:37.168Z,35.97
2019-04-01T11:24:37.149Z,36.18
2019-04-01T11:25:37.128Z,35.77
2019-04-01T11:26:37.186Z,35.97
2019-04-01T11:27:37.100Z,35.75
2019-04-01T11:28:37.149Z,35.86
2019-04-01T11:29:37.093Z,36.15
2019-04-01T11:30:37.410Z,37.84
2019-04-01T11:31:37.087Z,35.19
2019-04-01T11:32:37.080Z,34.88
2019-04-01T11:33:37.062Z,35.33
2019-04-01T11:34:37.072Z,34.92
2019-04-01T11:35:37.065Z,35.98
2019-04-01T11:36:37.045Z,37.29
2019-04-01T11:37:37.054Z,37.43
2019-04-01T11:38:37.023Z,37.30
2019-04-01T11:39:37.018Z,37.54
2019-04-01T11:40:38.776Z,38.17
2019-04-01T11:41:36.992Z,37.71
2019-04-01T11:42:40.484Z,36.27
2019-04-01T11:43:36.995Z,36.16
2019-04-01T11:44:36.920Z,35.88
2019-04-01T11:45:36.940Z,36.05
2019-04-01T11:46:36.977Z,35.53
2019-04-01T11:47:36.928Z,35.71
2019-04-01T11:48:36.944Z,34.67
2019-04-01T11:49:37.348Z,34.81
2019-04-01T11:50:36.955Z,34.48
2019-04-01T11:51:39.812Z,34.71
2019-04-01T11:52:38.059Z,35.31
2019-04-01T11:53:37.429Z,34.89
2019-04-01T11:54:36.838Z,34.91
2019-04-01T11:55:36.835Z,35.50
2019-04-01T11:56:36.836Z,37.63
2019-04-01T11:57:36.802Z,38.43
2019-04-01T11:58:36.943Z,36.94
2019-04-01T11:59:37.912Z,37.46
2019-04-01T12:00:36.747Z,38.23
2019-04-01T12:01:36.988Z,37.43
2019-04-01T12:02:36.779Z,37.43
2019-04-01T12:03:36.740Z,37.26
2019-04-01T12:04:36.740Z,37.87
2019-04-01T12:05:36.694Z,38.28
2019-04-01T12:06:36.810Z,38.18
2019-04-01T12:07:36.672Z,38.59
2019-04-01T12:08:36.675Z,39.09
2019-04-01T12:09:36.680Z,38.18
2019-04-01T12:10:36.630Z,38.91
2019-04-01T12:11:36.628Z,38.73
2019-04-01T12:12:36.621Z,39.87
2019-04-01T12:13:36.621Z,40.61
2019-04-01T12:14:36.670Z,41.35
2019-04-01T12:15:36.618Z,41.64
2019-04-01T12:16:36.566Z,42.60
2019-04-01T12:17:36.562Z,42.17
2019-04-01T12:18:36.567Z,41.46
2019-04-01T12:19:36.624Z,41.06
2019-04-01T12:20:36.600Z,41.18
2019-04-01T12:21:37.096Z,42.19
2019-04-01T12:22:36.522Z,42.90
2019-04-01T12:23:36.510Z,42.17
2019-04-01T12:24:36.556Z,41.46
2019-04-01T12:25:36.542Z,41.78
2019-04-01T12:26:36.506Z,41.89
2019-04-01T12:27:36.472Z,43.20
2019-04-01T12:28:36.821Z,42.58
2019-04-01T12:29:36.472Z,42.46
2019-04-01T12:30:36.436Z,41.95
2019-04-01T12:31:36.503Z,40.66
2019-04-01T12:32:36.474Z,40.77
2019-04-01T12:33:36.492Z,40.88
2019-04-01T12:34:36.635Z,41.49
2019-04-01T12:35:36.443Z,41.38
2019-04-01T12:36:37.322Z,41.69
2019-04-01T12:37:37.307Z,41.28
2019-04-01T12:38:36.463Z,41.91
2019-04-01T12:39:36.885Z,41.99
2019-04-01T12:40:36.398Z,42.29
2019-04-01T12:41:36.303Z,41.56
2019-04-01T12:42:36.368Z,41.77
2019-04-01T12:43:36.299Z,41.06
2019-04-01T12:44:36.303Z,41.55
2019-04-01T12:45:36.253Z,41.35
2019-04-01T12:46:36.277Z,41.87
2019-04-01T12:47:36.245Z,41.77
2019-04-01T12:48:36.249Z,41.04
2019-04-01T12:49:36.258Z,41.16
2019-04-01T12:50:36.213Z,42.15
2019-04-01T12:51:36.218Z,41.14
2019-04-01T12:52:36.208Z,40.84